Fairview Valley, Nevada Weather observations

Data are for observation ending at time listed.
 Day   Time    Ave.   Ave.  Ave.  Vector   Max.   Stn.    Total    Solar   Ave.   Ave.    #1       #2
  of    of     Air    Rel.  Wind   Wind    Wind   Baro.  Precip.   Rad.    Soil   Vis.   Cloud   Cloud
Year   Day     Temp.  Hum.  Speed  Dir.    Gust   Pres.                    Temp.          Ceil    Ceil
2014   (PST)    F      %     mph   deg.    mph     mb.     in.     W/m2     F     (km)   k ft.   k ft.
------------------------------------------------------------------------------------------------------
 209    6:40   76.4    26    0.7   106      3.6    875     0.00     129    84.1   999.0    0.0  999.0
 209    6:50   76.5    26    4.9   130      7.0    876     0.00     138    84.0   999.0    0.0  999.0
 209    7:00   78.0    26    4.5   148      7.5    876     0.00     170    84.0   999.0    0.0  999.0
 209    7:10   78.7    26    4.0   158      5.0    876     0.00     213    83.8   999.0    0.0  999.0
 209    7:20   79.6    25    1.6   145      3.4    876     0.00     279    83.8   999.0    0.0  999.0
 209    7:30   80.6    25    3.9   156      5.9    876     0.00     289    83.7   999.0    0.0  999.0
 209    7:40   80.7    25    3.1   162      4.9    876     0.00     269    83.6   999.0    0.0  999.0
 209    7:50   80.9    25    3.4   219      5.5    876     0.00     263    83.5   999.0    0.0  999.0
 209    8:00   80.9    25    4.2   237      6.1    876     0.00     293    83.4   999.0    0.0  999.0
 209    8:10   81.6    24    2.3   240      4.9    876     0.00     319    83.3   999.0    0.0  999.0
 209    8:20   81.8    24    3.6   245      5.9    876     0.00     317    83.3   999.0    0.0  999.0
 209    8:30   82.0    24    4.0   239      5.6    876     0.00     308    83.2   999.0    0.0  999.0
 209    8:40   82.7    23    3.9   242      5.8    876     0.00     342    83.2   999.0    0.0  999.0
 209    8:50   84.1    22    3.3   236      6.6    876     0.00     541    83.1   999.0    0.0  999.0
 209    9:00   85.6    21    3.8   244      6.8    876     0.00     590    83.1   999.0    0.0  999.0
 209    9:10   85.7    21    5.3   243      8.8    876     0.00     493    83.1   999.0    0.0  999.0
 209    9:20   85.5    21    4.8   260      8.9    876     0.00     423    83.1   999.0    0.0  999.0
 209    9:30   85.6    20    3.6   251      8.0    876     0.00     400    83.0   999.0    0.0  999.0
 209    9:40   85.9    20    6.5   284     10.3    876     0.00     389    83.0   999.0    0.0  999.0
 209    9:50   85.9    20    4.1   298      7.1    876     0.00     381    83.1   999.0    0.0  999.0
 209   10:00   86.2    20    4.2   265      8.3    876     0.00     355    83.1   999.0    0.0  999.0
 209   10:10   86.4    20    4.5   273      6.7    876     0.00     333    83.0   999.0    0.0  999.0
 209   10:20   86.6    19    3.7   283      6.9    875     0.00     350    83.1   999.0    0.0  999.0
 209   10:30   87.2    18    5.6   305     10.2    875     0.00     369    83.1   999.0    0.0  999.0
 209   10:40   87.1    18    6.4   274     11.7    875     0.00     363    83.2   999.0    0.0  999.0
 209   10:50   87.3    18    3.1   235      7.2    875     0.00     365    83.2   999.0    0.0  999.0
 209   11:00   87.9    18    3.5   245      8.1    875     0.00     387    83.3   999.0    0.0  999.0
 209   11:10   87.6    17    5.7   275     10.2    875     0.00     460    83.3   999.0    0.0  999.0
 209   11:20   88.1    16    4.0   276      7.2    875     0.00     540    83.4   999.0    0.0  999.0
 209   11:30   88.9    16    3.3   285      6.3    875     0.00     590    83.4   999.0    0.0  999.0
 209   11:40   89.7    15    5.7   284      8.8    875     0.00     685    83.5   999.0    0.0  999.0
 209   11:50   90.5    14    5.7   280      9.3    875     0.00     799    83.6   999.0    0.0  999.0
 209   12:00   90.9    14    4.7   283     12.0    875     0.00     794    83.7   999.0    0.0  999.0
 209   12:10   91.6    13    6.5   269     11.6    874     0.00     868    83.7   999.0    0.0  999.0
 209   12:20   92.5    12    8.3   295     16.2    874     0.00     915    83.8   999.0    0.0  999.0
 209   12:30   92.9    12    4.0   292     12.4    874     0.00     869    83.9   999.0    0.0  999.0
 209   12:40   92.6    11    8.2   296     12.6    874     0.00     503    84.0   999.0    0.0  999.0
 209   12:50   92.6    11    8.1   304     12.5    874     0.00     376    84.1   999.0    0.0  999.0
 209   13:00   92.2    10    5.8   342     10.5    874     0.00     350    84.2   999.0    0.0  999.0
 209   13:10   92.5    10    5.7   329      9.6    874     0.00     309    84.3   999.0    0.0  999.0
 209   13:20   92.2    10    4.2   324      7.5    874     0.00     267    84.5   999.0    0.0  999.0
 209   13:30   92.3    10    5.1   245     10.7    874     0.00     228    84.6   999.0    0.0  999.0
 209   13:40   91.8    10    4.8   277      7.5    874     0.00     142    84.8   999.0    0.0  999.0
 209   13:50   91.5    10    6.0   290     10.3    874     0.00      95    84.9   999.0    1.4  999.0
 209   14:00   91.0    11    5.4   264      9.1    874     0.00      73    85.0   999.0    0.0  999.0
 209   14:10   90.9    11    4.6   244      9.3    874     0.00      65    85.2   999.0    0.0  999.0
 209   14:20   90.0    12   11.1   205     20.6    874     0.00      61    85.4   999.0    2.0  999.0
 209   14:30   89.2    13   13.9   158     21.7    874     0.00      58    85.5   999.0    0.0  999.0
 209   14:40   88.1    13   11.9   160     18.2    874     0.00      57    85.6   999.0    0.6  999.0
 209   14:50   87.5    17   13.8   188     21.5    874     0.00      60    85.7   999.0    0.0  999.0
 209   15:00   85.9    19   17.2   190     23.2    874     0.00      67    85.8   999.0    0.0  999.0
 209   15:10   85.5    21   18.1   187     25.1    874     0.00      75    85.9   999.0    0.0  999.0
 209   15:20   84.8    22   17.1   188     23.5    874     0.00      77    86.0   999.0    0.0  999.0
 209   15:30   84.3    23   14.2   207     21.4    875     0.00      76    86.1   999.0    0.0  999.0
 209   15:40   83.4    25   17.0   212     24.8    874     0.00      74    86.2   999.0    0.0  999.0
 209   15:50   82.7    25   21.5   206     34.8    874     0.00      73    86.2   999.0    0.0  999.0
 209   16:00   80.9    29   19.6   216     28.1    875     0.00      71    86.2   999.0    0.0  999.0
 209   16:10   78.5    34   20.4   218     29.0    875     0.00      73    86.3   999.0    0.1  999.0
 209   16:20   77.2    37   22.2   209     32.2    874     0.00      79    86.3   999.0    0.0  999.0
 209   16:30   77.4    36   18.5   205     27.6    874     0.00      90    86.3   999.0    0.0  999.0
 209   16:40   79.3    31   14.4   208     24.6    874     0.00      97    86.3   999.0    0.0  999.0
 209   16:50   82.3    24   11.5   195     18.5    874     0.00     103    86.3   999.0    0.0  999.0
 209   17:00   82.4    26   10.2    13     19.3    874     0.00      94    86.3   999.0    0.0  999.0
 209   17:10   80.9    27    9.4    10     13.7    874     0.00      82    86.3   999.0    0.0  999.0
 209   17:20   81.6    26   12.3   343     18.7    874     0.00      76    86.3   999.0    0.0  999.0
 209   17:30   81.3    26   10.7   324     15.9    874     0.00      68    86.3   999.0    0.0  999.0
 209   17:40   81.8    25   10.3   329     16.7    874     0.00      51    86.3   999.0    0.0  999.0
 209   17:50   81.7    24    9.8   297     20.8    874     0.00      45    86.3   999.0    0.0  999.0
 209   18:00   78.5    32   16.3   215     27.8    874     0.00      47    86.3   999.0    0.0  999.0
 209   18:10   77.0    35   16.9   220     26.1    874     0.00      38    86.2   999.0    0.0  999.0
 209   18:20   75.6    40   19.1   224     27.3    874     0.00      24    86.1   999.0    0.0  999.0
 209   18:30  999.0   999  999.0   999    999.0    999    999.00     999   999.0   999.0  999.0  999.0
 209   18:40  999.0   999  999.0   999    999.0    999    999.00     999   999.0   999.0  999.0  999.0
 209   18:50   73.3    46   21.6   204     29.8    875     0.00       7    86.1   -6154.0  209.0  999.0
 209   19:00  999.0   999  999.0   999    999.0    999    999.00     999   999.0   999.0  999.0  999.0
 209   19:10  999.0   999  999.0   999    999.0    999    999.00     999   999.0   999.0  999.0  999.0
 209   19:20  999.0   999  999.0   999    999.0    999    999.00     999   999.0   999.0  999.0  999.0
 209   19:30  999.0   999  999.0   999    999.0    999    999.00     999   999.0   999.0  999.0  999.0
 209   19:40  999.0   999  999.0   999    999.0    999    999.00     999   999.0   999.0  999.0  999.0
 209   19:50   76.6    32   12.6   204     17.2    876     0.00       0    85.8   999.0   11.1  999.0
 209   20:00   76.8    32   11.4   202     15.7    876     0.00       0    85.7   999.0    9.6  999.0
 209   20:10  408.2   1850   12.3   193     15.7    678    21.58       0   400.1    23.0   46.2  999.0
 209   20:20  999.0   999  999.0   999    999.0    999    999.00     999   999.0   999.0  999.0  999.0
 209   20:30  999.0   999  999.0   999    999.0    999    999.00     999   999.0   999.0  999.0  999.0
 209   20:40  999.0   999  999.0   999    999.0    999    999.00     999   999.0   999.0  999.0  999.0
 209   20:50  3542.0     0    8.2   234    209.0    1103    203.70       0    63.0    32.2    5.9  999.0
 209   21:00  999.0   999  999.0   999    999.0    999    999.00     999   999.0   999.0  999.0  999.0
 209   21:10  999.0   999  999.0   999    999.0    999    999.00     999   999.0   999.0  999.0  999.0
 209   21:20  999.0   999  999.0   999    999.0    999    999.00     999   999.0   999.0  999.0  999.0
 209   21:30  999.0   999  999.0   999    999.0    999    999.00     999   999.0   999.0  999.0  999.0
 209   21:40  999.0   999  999.0   999    999.0    999    999.00     999   999.0   999.0  999.0  999.0
 209   21:50  999.0   999  999.0   999    999.0    999    999.00     999   999.0   999.0  999.0  999.0
 209   22:00  999.0   999  999.0   999    999.0    999    999.00     999   999.0   999.0  999.0  999.0
 209   22:10  999.0   999  999.0   999    999.0    999    999.00     999   999.0   999.0  999.0  999.0
 209   22:20  999.0   999  999.0   999    999.0    999    999.00     999   999.0   999.0  999.0  999.0
 209   22:30  999.0   999  999.0   999    999.0    999    999.00     999   999.0   999.0  999.0  999.0
 209   22:40  999.0   999  999.0   999    999.0    999    999.00     999   999.0   999.0  999.0  999.0
 209   22:50  999.0   999  999.0   999    999.0    999    999.00     999   999.0   999.0  999.0  999.0
 209   23:00  999.0   999  999.0   999    999.0    999    999.00     999   999.0   999.0  999.0  999.0
 209   23:10  999.0   999  999.0   999    999.0    999    999.00     999   999.0   999.0  999.0  999.0
 209   23:20  999.0   999  999.0   999    999.0    999    999.00     999   999.0   999.0  999.0  999.0
 209   23:30  999.0   999  999.0   999    999.0    999    999.00     999   999.0   999.0  999.0  999.0
 209   23:40  383.4    18  1650.0     0     11.5    1624    23.84   209000    42.5    30.2   13.0  999.0
 209   23:50  999.0   999  999.0   999    999.0    999    999.00     999   999.0   999.0  999.0  999.0
 210    0:00  999.0   999  999.0   999    999.0    999    999.00     999   999.0   999.0  999.0  999.0
 210    0:10  999.0   999  999.0   999    999.0    999    999.00     999   999.0   999.0  999.0  999.0
 210    0:20  999.0   999  999.0   999    999.0    999    999.00     999   999.0   999.0  999.0  999.0
 210    0:30  999.0   999  999.0   999    999.0    999    999.00     999   999.0   999.0  999.0  999.0
 210    0:40  999.0   999  999.0   999    999.0    999    999.00     999   999.0   999.0  999.0  999.0
 210    0:50  999.0   999  999.0   999    999.0    999    999.00     999   999.0   999.0  999.0  999.0
 210    1:00  999.0   999  999.0   999    999.0    999    999.00     999   999.0   999.0  999.0  999.0
 210    1:10  999.0   999  999.0   999    999.0    999    999.00     999   999.0   999.0  999.0  999.0
 210    1:20  999.0   999  999.0   999    999.0    999    999.00     999   999.0   999.0  999.0  999.0
 210    1:30  999.0   999  999.0   999    999.0    999    999.00     999   999.0   999.0  999.0  999.0
 210    1:40  999.0   999  999.0   999    999.0    999    999.00     999   999.0   999.0  999.0  999.0
 210    1:50  999.0   999  999.0   999    999.0    999    999.00     999   999.0   999.0  999.0  999.0
 210    2:00  999.0   999  999.0   999    999.0    999    999.00     999   999.0   999.0  999.0  999.0
 210    2:10  999.0   999  999.0   999    999.0    999    999.00     999   999.0   999.0  999.0  999.0
 210    2:20  999.0   999  999.0   999    999.0    999    999.00     999   999.0   999.0  999.0  999.0
 210    2:30  999.0   999  999.0   999    999.0    999    999.00     999   999.0   999.0  999.0  999.0
 210    2:40  999.0   999  999.0   999    999.0    999    999.00     999   999.0   999.0  999.0  999.0
 210    2:50  999.0   999  999.0   999    999.0    999    999.00     999   999.0   999.0  999.0  999.0
 210    3:00  999.0   999  999.0   999    999.0    999    999.00     999   999.0   999.0  999.0  999.0
 210    3:10  999.0   999  999.0   999    999.0    999    999.00     999   999.0   999.0  999.0  999.0
 210    3:20  999.0   999  999.0   999    999.0    999    999.00     999   999.0   999.0  999.0  999.0
 210    3:30  999.0   999  999.0   999    999.0    999    999.00     999   999.0   999.0  999.0  999.0
 210    3:40  999.0   999  999.0   999    999.0    999    999.00     999   999.0   999.0  999.0  999.0
 210    3:50  999.0   999  999.0   999    999.0    999    999.00     999   999.0   999.0  999.0  999.0
 210    4:00  999.0   999  999.0   999    999.0    999    999.00     999   999.0   999.0  999.0  999.0
 210    4:10  999.0   999  999.0   999    999.0    999    999.00     999   999.0   999.0  999.0  999.0
 210    4:20  999.0   999  999.0   999    999.0    999    999.00     999   999.0   999.0  999.0  999.0
 210    4:30  999.0   999  999.0   999    999.0    999    999.00     999   999.0   999.0  999.0  999.0
 210    4:40  999.0   999  999.0   999    999.0    999    999.00     999   999.0   999.0  999.0  999.0
 210    4:50  999.0   999  999.0   999    999.0    999    999.00     999   999.0   999.0  999.0  999.0
 210    5:00  999.0   999  999.0   999    999.0    999    999.00     999   999.0   999.0  999.0  999.0
 210    5:10  999.0   999  999.0   999    999.0    999    999.00     999   999.0   999.0  999.0  999.0
 210    5:20  999.0   999  999.0   999    999.0    999    999.00     999   999.0   999.0  999.0  999.0
 210    5:30  999.0   999  999.0   999    999.0    999    999.00     999   999.0   999.0  999.0  999.0
 210    5:40  999.0   999  999.0   999    999.0    999    999.00     999   999.0   999.0  999.0  999.0
 210    5:50   69.5    46    1.8   232      4.2    876     0.00      57    81.4   999.0   12.5  999.0
 210    6:00   69.8    46    0.5   232      2.5    876     0.00      53    81.4   999.0    1.5  999.0
 210    6:10   69.4    48    2.5   254      3.8    876     0.00      54    81.3   999.0    0.0  999.0
 210    6:20   69.5    49    1.3   249      2.8    876     0.00      69    81.2   999.0    0.0  999.0
 210    6:30   69.6    48    1.8   265      2.7    876     0.00      82    81.2   999.0    0.0  999.0

Return to Fairview Valley graphs page.


Western Regional Climate Center,wrcc@dri.edu